createdAt,value
2022-11-29T00:00:30.027Z,10.73
2022-11-29T00:02:56.642Z,10.40
2022-11-29T00:05:23.407Z,8.60
2022-11-29T00:07:50.096Z,9.70
2022-11-29T00:10:16.735Z,10.40
2022-11-29T00:12:43.363Z,9.48
2022-11-29T00:15:09.969Z,9.98
2022-11-29T00:17:36.615Z,9.68
2022-11-29T00:20:03.386Z,9.73
2022-11-29T00:22:30.244Z,10.10
2022-11-29T00:24:56.816Z,8.55
2022-11-29T00:27:23.480Z,8.95
2022-11-29T00:29:50.073Z,10.90
2022-11-29T00:32:16.649Z,10.20
2022-11-29T00:34:43.459Z,10.45
2022-11-29T00:37:10.282Z,9.05
2022-11-29T00:39:36.826Z,9.65
2022-11-29T00:42:03.540Z,10.38
2022-11-29T00:44:30.172Z,9.85
2022-11-29T00:46:56.796Z,8.88
2022-11-29T00:49:24.342Z,10.05
2022-11-29T00:51:51.016Z,9.93
2022-11-29T00:54:17.597Z,9.40
2022-11-29T00:56:45.458Z,9.40
2022-11-29T00:59:12.045Z,9.85
2022-11-29T01:01:38.748Z,8.70
2022-11-29T01:04:05.354Z,8.35
2022-11-29T01:06:31.914Z,10.68
2022-11-29T01:08:58.477Z,8.18
2022-11-29T01:11:26.261Z,9.52
2022-11-29T01:13:58.173Z,8.98
2022-11-29T01:16:24.947Z,8.65
2022-11-29T01:18:51.590Z,9.40
2022-11-29T01:21:20.743Z,8.55
2022-11-29T01:23:48.105Z,9.52
2022-11-29T01:26:23.451Z,8.35
2022-11-29T01:31:22.774Z,8.57
2022-11-29T01:33:49.354Z,8.02
2022-11-29T01:36:15.922Z,8.65
2022-11-29T01:38:42.590Z,9.93
2022-11-29T01:41:12.742Z,7.18
2022-11-29T01:44:15.737Z,7.93
2022-11-29T01:46:44.318Z,7.75
2022-11-29T01:49:21.353Z,7.85
2022-11-29T01:51:50.433Z,7.43
2022-11-29T01:54:16.998Z,7.47
2022-11-29T01:56:43.619Z,8.95
2022-11-29T01:59:12.685Z,7.72
2022-11-29T02:01:39.345Z,8.05
2022-11-29T02:04:06.102Z,6.87
2022-11-29T02:06:33.274Z,7.30
2022-11-29T02:08:59.874Z,8.13
2022-11-29T02:11:48.072Z,8.15
2022-11-29T02:14:26.322Z,7.93
2022-11-29T02:17:05.884Z,6.47
2022-11-29T02:20:02.315Z,7.50
2022-11-29T02:22:56.923Z,7.70
2022-11-29T02:26:04.873Z,7.12
2022-11-29T02:28:49.823Z,6.97
2022-11-29T02:31:44.105Z,7.00
2022-11-29T02:34:19.862Z,8.30
2022-11-29T02:36:52.129Z,7.43
2022-11-29T02:39:49.514Z,7.97
2022-11-29T02:42:56.847Z,7.40
2022-11-29T02:45:23.715Z,6.90
2022-11-29T02:48:14.528Z,6.65
2022-11-29T02:51:12.189Z,7.80
2022-11-29T02:53:44.868Z,6.65
2022-11-29T02:56:27.489Z,8.02
2022-11-29T02:59:15.514Z,6.40
2022-11-29T03:01:48.004Z,6.78
2022-11-29T03:04:34.026Z,7.07
2022-11-29T03:07:11.620Z,6.57
2022-11-29T03:09:46.374Z,6.75
2022-11-29T03:12:27.123Z,6.75
2022-11-29T03:15:03.511Z,7.53
2022-11-29T03:18:00.960Z,6.72
2022-11-29T03:20:48.958Z,6.53
2022-11-29T03:23:36.958Z,7.53
2022-11-29T03:26:12.644Z,7.22
2022-11-29T03:28:46.301Z,7.65
2022-11-29T03:31:19.264Z,6.12
2022-11-29T03:34:06.094Z,7.60
2022-11-29T03:37:09.133Z,7.78
2022-11-29T03:39:49.689Z,7.10
2022-11-29T03:42:19.939Z,7.50
2022-11-29T03:44:57.713Z,8.15
2022-11-29T03:47:28.393Z,6.80
2022-11-29T03:49:59.482Z,7.70
2022-11-29T03:52:49.752Z,7.25
2022-11-29T03:55:56.707Z,6.80
2022-11-29T04:01:20.225Z,6.07
2022-11-29T04:04:18.016Z,7.10
2022-11-29T04:07:19.963Z,6.25
2022-11-29T04:10:14.521Z,7.03
2022-11-29T04:13:18.857Z,6.07
2022-11-29T04:16:11.583Z,6.43
2022-11-29T04:18:46.981Z,5.90
2022-11-29T04:24:19.993Z,5.85
2022-11-29T04:27:17.605Z,6.18
2022-11-29T04:29:50.309Z,5.60
2022-11-29T04:32:34.830Z,5.68
2022-11-29T04:35:51.846Z,5.82
2022-11-29T04:39:00.097Z,5.43
2022-11-29T04:41:41.315Z,6.50
2022-11-29T04:44:16.949Z,5.72
2022-11-29T04:46:59.989Z,5.82
2022-11-29T04:49:51.182Z,5.70
2022-11-29T04:52:42.949Z,5.30
2022-11-29T04:55:30.720Z,4.97
2022-11-29T04:58:18.913Z,6.78
2022-11-29T05:01:06.967Z,5.78
2022-11-29T05:03:57.389Z,5.40
2022-11-29T05:06:44.943Z,5.53
2022-11-29T05:09:17.522Z,5.93
2022-11-29T05:11:53.041Z,5.75
2022-11-29T05:14:25.422Z,6.50
2022-11-29T05:17:07.130Z,5.53
2022-11-29T05:19:47.412Z,5.32
2022-11-29T05:22:23.406Z,5.82
2022-11-29T05:25:31.577Z,5.05
2022-11-29T05:28:10.583Z,6.37
2022-11-29T05:31:20.252Z,5.87
2022-11-29T05:34:07.013Z,5.82
2022-11-29T05:36:48.805Z,5.97
2022-11-29T05:39:39.439Z,5.60
2022-11-29T05:42:13.987Z,5.32
2022-11-29T05:44:46.096Z,5.82
2022-11-29T05:47:16.655Z,5.75
2022-11-29T05:49:57.271Z,5.57
2022-11-29T05:52:42.152Z,5.85
2022-11-29T05:55:11.814Z,5.50
2022-11-29T05:57:53.410Z,7.43
2022-11-29T06:00:20.084Z,6.82
2022-11-29T06:03:13.132Z,7.57
2022-11-29T06:06:00.732Z,9.57
2022-11-29T06:08:45.697Z,7.87
2022-11-29T06:11:27.981Z,8.95
2022-11-29T06:14:36.210Z,8.60
2022-11-29T06:17:25.373Z,10.60
2022-11-29T06:20:19.267Z,8.35
2022-11-29T06:23:07.712Z,9.20
2022-11-29T06:25:42.719Z,9.65
2022-11-29T06:28:19.580Z,7.50
2022-11-29T06:31:08.173Z,11.32
2022-11-29T06:34:04.063Z,10.93
2022-11-29T06:37:05.544Z,11.52
2022-11-29T06:39:32.335Z,10.18
2022-11-29T06:41:58.894Z,12.48
2022-11-29T06:44:25.707Z,10.43
2022-11-29T06:47:00.030Z,11.57
2022-11-29T06:49:48.777Z,13.98
2022-11-29T06:52:21.240Z,11.98
2022-11-29T06:55:15.940Z,10.25
2022-11-29T06:58:03.804Z,10.52
2022-11-29T07:00:52.775Z,9.18
2022-11-29T07:03:28.717Z,6.57
2022-11-29T07:05:55.871Z,8.15
2022-11-29T07:08:23.491Z,10.23
2022-11-29T07:10:53.162Z,6.62
2022-11-29T07:13:20.128Z,8.07
2022-11-29T07:16:00.709Z,7.53
2022-11-29T07:18:40.662Z,8.63
2022-11-29T07:21:37.689Z,7.87
2022-11-29T07:24:28.685Z,7.32
2022-11-29T07:27:10.395Z,6.97
2022-11-29T07:29:52.275Z,7.28
2022-11-29T07:32:43.643Z,7.55
2022-11-29T07:35:32.744Z,8.02
2022-11-29T07:38:41.144Z,9.05
2022-11-29T07:41:29.147Z,8.60
2022-11-29T07:44:13.844Z,8.55
2022-11-29T07:46:40.492Z,7.32
2022-11-29T07:49:10.314Z,8.82
2022-11-29T07:51:36.856Z,10.07
2022-11-29T07:54:03.547Z,6.72
2022-11-29T07:56:30.185Z,8.68
2022-11-29T07:58:56.877Z,7.18
2022-11-29T08:01:23.634Z,8.00
2022-11-29T08:03:50.298Z,6.68
2022-11-29T08:06:23.892Z,8.80
2022-11-29T08:08:50.481Z,7.43
2022-11-29T08:11:17.029Z,6.78
2022-11-29T08:13:43.607Z,7.32
2022-11-29T08:16:15.850Z,6.68
2022-11-29T08:18:42.481Z,7.68
2022-11-29T08:21:09.025Z,7.70
2022-11-29T08:23:35.613Z,7.65
2022-11-29T08:26:02.638Z,8.43
2022-11-29T08:28:29.225Z,8.25
2022-11-29T08:31:06.177Z,8.85
2022-11-29T08:33:35.140Z,6.65
2022-11-29T08:36:09.327Z,7.05
2022-11-29T08:38:35.927Z,7.82
2022-11-29T08:41:06.820Z,8.93
2022-11-29T08:43:33.581Z,7.68
2022-11-29T08:46:00.329Z,6.32
2022-11-29T08:48:26.978Z,6.75
2022-11-29T08:50:53.907Z,10.38
2022-11-29T08:53:39.941Z,8.75
2022-11-29T08:56:31.890Z,8.77
2022-11-29T08:58:53.975Z,7.47
2022-11-29T09:01:20.789Z,6.87
2022-11-29T09:03:59.423Z,7.57
2022-11-29T09:06:27.329Z,8.45
2022-11-29T09:08:57.140Z,7.95
2022-11-29T09:11:24.598Z,7.80
2022-11-29T09:13:52.757Z,6.85
2022-11-29T09:16:20.841Z,8.20
2022-11-29T09:18:51.913Z,7.85
2022-11-29T09:21:18.911Z,7.68
2022-11-29T09:23:45.597Z,7.55
2022-11-29T09:26:16.777Z,8.48
2022-11-29T09:28:43.423Z,7.10
2022-11-29T09:31:12.814Z,11.55
2022-11-29T09:33:39.887Z,9.40
2022-11-29T09:36:07.611Z,8.95
2022-11-29T09:38:34.445Z,7.45
2022-11-29T09:41:03.920Z,7.55
2022-11-29T09:43:57.011Z,7.90
2022-11-29T09:46:23.528Z,8.32
2022-11-29T09:49:18.150Z,7.10
2022-11-29T09:51:59.885Z,7.90
2022-11-29T09:54:49.992Z,15.38
2022-11-29T09:57:17.535Z,7.45
2022-11-29T09:59:47.412Z,7.03
2022-11-29T10:02:21.603Z,7.20
2022-11-29T10:04:57.385Z,11.52
2022-11-29T10:07:33.288Z,8.23
2022-11-29T10:10:08.453Z,6.60
2022-11-29T10:15:22.968Z,7.25
2022-11-29T10:18:23.269Z,7.55
2022-11-29T10:20:51.199Z,13.23
2022-11-29T10:23:29.546Z,11.80
2022-11-29T10:25:56.799Z,12.98
2022-11-29T10:28:31.378Z,12.68
2022-11-29T10:31:25.094Z,11.82
2022-11-29T10:33:53.795Z,14.18
2022-11-29T10:36:20.309Z,12.45
2022-11-29T10:38:46.986Z,12.63
2022-11-29T10:41:15.912Z,12.52
2022-11-29T10:43:43.323Z,15.80
2022-11-29T10:46:15.781Z,14.23
2022-11-29T10:48:42.474Z,14.15
2022-11-29T10:51:15.371Z,16.00
2022-11-29T10:53:41.986Z,12.27
2022-11-29T10:56:27.148Z,11.30
2022-11-29T10:59:07.853Z,13.07
2022-11-29T11:01:41.296Z,11.02
2022-11-29T11:04:10.890Z,9.07
2022-11-29T11:06:52.280Z,9.75
2022-11-29T11:09:28.459Z,12.65
2022-11-29T11:11:56.498Z,11.77
2022-11-29T11:14:28.510Z,9.95
2022-11-29T11:16:55.444Z,9.13
2022-11-29T11:19:30.360Z,12.57
2022-11-29T11:21:58.218Z,11.57
2022-11-29T11:24:29.660Z,11.02
2022-11-29T11:26:56.317Z,10.65
2022-11-29T11:29:25.548Z,14.13
2022-11-29T11:31:56.642Z,10.75
2022-11-29T11:34:35.981Z,8.48
2022-11-29T11:37:14.659Z,9.35
2022-11-29T11:39:45.121Z,9.63
2022-11-29T11:42:36.454Z,9.35
2022-11-29T11:45:12.614Z,9.27
2022-11-29T11:47:43.201Z,8.88
2022-11-29T11:50:15.643Z,10.32
2022-11-29T11:52:54.593Z,10.82
2022-11-29T11:55:21.065Z,10.70
2022-11-29T11:58:09.740Z,10.90
2022-11-29T12:01:02.254Z,8.98
2022-11-29T12:03:24.931Z,8.07
2022-11-29T12:05:51.737Z,9.85
2022-11-29T12:08:18.327Z,9.70
2022-11-29T12:10:44.918Z,10.85
2022-11-29T12:13:24.183Z,13.15
2022-11-29T12:15:50.860Z,9.63
2022-11-29T12:18:39.696Z,12.15
2022-11-29T12:21:16.707Z,11.75
2022-11-29T12:24:02.451Z,9.73
2022-11-29T12:26:59.598Z,11.68
2022-11-29T12:29:18.368Z,12.82
2022-11-29T12:31:48.183Z,9.63
2022-11-29T12:34:34.030Z,10.30
2022-11-29T12:37:06.467Z,10.45
2022-11-29T12:40:08.399Z,15.13
2022-11-29T12:42:54.192Z,14.75
2022-11-29T12:45:32.844Z,15.73
2022-11-29T12:48:22.543Z,16.10
2022-11-29T12:51:07.687Z,10.98
2022-11-29T12:53:55.886Z,12.27
2022-11-29T12:56:26.189Z,12.57
2022-11-29T12:59:10.888Z,12.65
2022-11-29T13:02:12.490Z,10.75
2022-11-29T13:04:55.017Z,12.32
2022-11-29T13:07:30.825Z,15.15
2022-11-29T13:10:11.417Z,11.23
2022-11-29T13:12:42.849Z,11.85
2022-11-29T13:15:17.659Z,11.93
2022-11-29T13:18:06.371Z,12.43
2022-11-29T13:20:59.750Z,12.20
2022-11-29T13:24:07.204Z,13.43
2022-11-29T13:26:26.830Z,11.80
2022-11-29T13:28:53.471Z,13.43
2022-11-29T13:31:21.592Z,12.50
2022-11-29T13:34:00.331Z,15.02
2022-11-29T13:36:47.920Z,16.45
2022-11-29T13:39:32.672Z,11.30
2022-11-29T13:42:14.296Z,13.03
2022-11-29T13:44:53.174Z,13.52
2022-11-29T13:47:19.784Z,10.50
2022-11-29T13:50:02.820Z,11.40
2022-11-29T13:52:37.235Z,11.50
2022-11-29T13:55:12.293Z,11.33
2022-11-29T13:58:16.674Z,12.40
2022-11-29T14:00:44.211Z,12.52
2022-11-29T14:03:20.250Z,11.12
2022-11-29T14:05:47.006Z,11.43
2022-11-29T14:08:37.704Z,12.68
2022-11-29T14:11:14.018Z,13.23
2022-11-29T14:13:49.956Z,13.23
2022-11-29T14:16:31.364Z,13.32
2022-11-29T14:19:10.143Z,13.50
2022-11-29T14:22:09.774Z,13.48
2022-11-29T14:24:39.279Z,12.70
2022-11-29T14:27:05.734Z,14.20
2022-11-29T14:29:47.668Z,11.98
2022-11-29T14:32:24.159Z,14.25
2022-11-29T14:34:56.823Z,12.25
2022-11-29T14:38:05.512Z,13.80
2022-11-29T14:40:47.515Z,13.68
2022-11-29T14:43:36.151Z,11.30
2022-11-29T14:46:15.015Z,12.15
2022-11-29T14:48:57.081Z,12.93
2022-11-29T14:51:25.016Z,12.30
2022-11-29T14:54:18.091Z,12.32
2022-11-29T14:56:45.099Z,10.85
2022-11-29T14:59:49.224Z,10.40
2022-11-29T15:02:25.260Z,11.00
2022-11-29T15:04:53.637Z,14.55
2022-11-29T15:07:30.158Z,10.95
2022-11-29T15:09:59.804Z,12.20
2022-11-29T15:12:28.701Z,12.45
2022-11-29T15:15:14.073Z,13.02
2022-11-29T15:17:55.237Z,12.18
2022-11-29T15:20:55.094Z,13.65
2022-11-29T15:23:21.694Z,9.15
2022-11-29T15:25:50.093Z,9.65
2022-11-29T15:28:27.401Z,11.25
2022-11-29T15:31:13.428Z,11.32
2022-11-29T15:33:40.873Z,10.30
2022-11-29T15:36:09.096Z,10.77
2022-11-29T15:38:43.589Z,9.70
2022-11-29T15:41:30.333Z,10.68
2022-11-29T15:44:06.503Z,10.75
2022-11-29T15:46:34.427Z,9.35
2022-11-29T15:49:16.261Z,11.80
2022-11-29T15:51:42.817Z,12.10
2022-11-29T15:54:39.238Z,10.93
2022-11-29T15:57:12.142Z,10.88
2022-11-29T15:59:40.182Z,9.73
2022-11-29T16:02:29.452Z,11.88
2022-11-29T16:05:16.772Z,10.90
2022-11-29T16:07:44.186Z,10.05
2022-11-29T16:10:13.310Z,11.60
2022-11-29T16:12:57.887Z,9.73
2022-11-29T16:15:32.129Z,11.32
2022-11-29T16:18:06.126Z,9.73
2022-11-29T16:20:32.744Z,11.12
2022-11-29T16:23:04.036Z,10.63
2022-11-29T16:25:36.037Z,10.80
2022-11-29T16:28:05.946Z,11.40
2022-11-29T16:30:32.536Z,10.55
2022-11-29T16:32:59.490Z,10.07
2022-11-29T16:35:33.968Z,10.38
2022-11-29T16:38:03.432Z,10.90
2022-11-29T16:40:31.416Z,12.20
2022-11-29T16:43:04.304Z,9.65
2022-11-29T16:45:38.417Z,12.82
2022-11-29T16:48:31.458Z,10.93
2022-11-29T16:51:27.081Z,10.77
2022-11-29T16:53:53.971Z,11.75
2022-11-29T16:56:25.129Z,12.68
2022-11-29T16:59:25.892Z,10.43
2022-11-29T17:01:47.897Z,11.82
2022-11-29T17:04:24.066Z,11.82
2022-11-29T17:06:52.344Z,10.93
2022-11-29T17:09:30.550Z,12.65
2022-11-29T17:12:01.516Z,11.23
2022-11-29T17:14:28.769Z,12.00
2022-11-29T17:16:55.484Z,11.18
2022-11-29T17:19:23.828Z,11.30
2022-11-29T17:21:51.439Z,13.07
2022-11-29T17:24:19.347Z,12.88
2022-11-29T17:26:46.269Z,10.93
2022-11-29T17:29:13.670Z,10.48
2022-11-29T17:31:40.438Z,13.00
2022-11-29T17:34:07.092Z,12.30
2022-11-29T17:36:33.767Z,12.15
2022-11-29T17:39:00.447Z,11.80
2022-11-29T17:41:27.910Z,10.27
2022-11-29T17:43:55.329Z,10.88
2022-11-29T17:46:22.767Z,11.32
2022-11-29T17:48:49.639Z,11.95
2022-11-29T17:51:49.985Z,11.15
2022-11-29T17:54:04.717Z,11.00
2022-11-29T17:56:31.383Z,14.00
2022-11-29T17:58:59.056Z,10.50
2022-11-29T18:01:30.794Z,12.18
2022-11-29T18:03:59.020Z,12.00
2022-11-29T18:06:30.752Z,11.12
2022-11-29T18:08:58.741Z,11.38
2022-11-29T18:11:30.223Z,10.73
2022-11-29T18:13:57.499Z,12.20
2022-11-29T18:16:26.049Z,11.98
2022-11-29T18:19:07.034Z,11.73
2022-11-29T18:21:34.056Z,12.43
2022-11-29T18:24:01.192Z,10.98
2022-11-29T18:26:28.727Z,11.32
2022-11-29T18:28:55.327Z,10.57
2022-11-29T18:31:23.607Z,11.07
2022-11-29T18:33:52.396Z,12.13
2022-11-29T18:36:21.226Z,12.02
2022-11-29T18:38:48.147Z,12.25
2022-11-29T18:41:19.095Z,12.32
2022-11-29T18:43:46.299Z,12.77
2022-11-29T18:46:17.868Z,11.80
2022-11-29T18:48:44.994Z,11.40
2022-11-29T18:51:15.522Z,11.82
2022-11-29T18:53:42.802Z,11.10
2022-11-29T18:56:15.650Z,11.32
2022-11-29T18:58:45.867Z,11.15
2022-11-29T19:01:16.651Z,12.18
2022-11-29T19:03:45.063Z,11.43
2022-11-29T19:06:15.915Z,10.82
2022-11-29T19:08:42.786Z,12.02
2022-11-29T19:11:13.601Z,11.30
2022-11-29T19:13:40.390Z,11.48
2022-11-29T19:16:08.301Z,12.93
2022-11-29T19:18:35.203Z,11.60
2022-11-29T19:21:09.383Z,11.40
2022-11-29T19:23:36.001Z,12.45
2022-11-29T19:26:06.347Z,14.55
2022-11-29T19:28:32.973Z,12.40
2022-11-29T19:30:59.657Z,12.10
2022-11-29T19:33:26.283Z,12.25
2022-11-29T19:35:52.830Z,12.55
2022-11-29T19:38:19.406Z,12.23
2022-11-29T19:40:45.967Z,13.00
2022-11-29T19:43:12.562Z,12.20
2022-11-29T19:45:40.340Z,12.25
2022-11-29T19:48:06.934Z,11.60
2022-11-29T19:50:33.511Z,12.32
2022-11-29T19:53:00.221Z,12.70
2022-11-29T19:55:26.898Z,11.75
2022-11-29T19:57:55.500Z,12.25
2022-11-29T20:00:22.476Z,12.68
2022-11-29T20:02:49.156Z,12.57
2022-11-29T20:05:15.816Z,12.77
2022-11-29T20:07:42.403Z,11.12
2022-11-29T20:10:09.378Z,11.43
2022-11-29T20:12:35.979Z,12.50
2022-11-29T20:15:02.584Z,12.68
2022-11-29T20:17:29.160Z,11.80
2022-11-29T20:19:55.824Z,11.60
2022-11-29T20:22:22.432Z,12.23
2022-11-29T20:24:49.009Z,11.23
2022-11-29T20:27:15.586Z,12.23
2022-11-29T20:29:42.189Z,11.95
2022-11-29T20:32:08.787Z,12.23
2022-11-29T20:34:35.582Z,12.60
2022-11-29T20:37:08.472Z,12.20
2022-11-29T20:39:34.921Z,11.77
2022-11-29T20:42:20.444Z,11.60
2022-11-29T20:44:53.744Z,12.40
2022-11-29T20:47:22.241Z,12.82
2022-11-29T20:49:49.107Z,12.15
2022-11-29T20:52:39.879Z,13.25
2022-11-29T20:55:06.770Z,13.35
2022-11-29T20:57:33.384Z,12.18
2022-11-29T21:00:00.023Z,11.55
2022-11-29T21:02:26.603Z,12.27
2022-11-29T21:04:53.166Z,12.25
2022-11-29T21:07:19.837Z,11.25
2022-11-29T21:09:46.484Z,10.82
2022-11-29T21:12:13.415Z,12.15
2022-11-29T21:14:40.259Z,11.95
2022-11-29T21:17:07.873Z,11.12
2022-11-29T21:19:34.658Z,11.65
2022-11-29T21:22:40.950Z,12.35
2022-11-29T21:25:19.338Z,12.65
2022-11-29T21:27:46.149Z,11.20
2022-11-29T21:30:20.631Z,10.77
2022-11-29T21:32:47.962Z,11.95
2022-11-29T21:35:15.203Z,11.65
2022-11-29T21:37:41.771Z,11.68
2022-11-29T21:40:09.414Z,12.52
2022-11-29T21:42:36.380Z,11.95
2022-11-29T21:45:04.346Z,12.02
2022-11-29T21:47:31.887Z,12.02
2022-11-29T21:49:58.441Z,12.30
2022-11-29T21:52:25.050Z,12.70
2022-11-29T21:54:51.621Z,11.88
2022-11-29T21:57:18.238Z,11.38
2022-11-29T21:59:44.766Z,12.55
2022-11-29T22:02:11.448Z,11.85
2022-11-29T22:04:38.113Z,11.27
2022-11-29T22:07:04.706Z,11.57
2022-11-29T22:09:31.247Z,10.88
2022-11-29T22:11:58.946Z,11.45
2022-11-29T22:14:25.553Z,10.90
2022-11-29T22:16:55.474Z,11.15
2022-11-29T22:19:22.754Z,10.43
2022-11-29T22:21:58.073Z,11.82
2022-11-29T22:24:25.950Z,12.73
2022-11-29T22:26:52.790Z,11.95
2022-11-29T22:29:19.464Z,14.32
2022-11-29T22:31:47.298Z,12.88
2022-11-29T22:34:13.958Z,11.77
2022-11-29T22:36:40.646Z,13.27
2022-11-29T22:39:07.378Z,10.95
2022-11-29T22:41:34.834Z,11.52
2022-11-29T22:44:01.430Z,11.32
2022-11-29T22:46:28.437Z,11.50
2022-11-29T22:48:56.258Z,11.52
2022-11-29T22:51:33.814Z,11.63
2022-11-29T22:54:02.259Z,11.18
2022-11-29T22:56:30.332Z,12.18
2022-11-29T22:58:56.984Z,11.32
2022-11-29T23:01:25.170Z,11.30
2022-11-29T23:03:54.249Z,12.02
2022-11-29T23:06:22.893Z,10.98
2022-11-29T23:08:49.932Z,12.73
2022-11-29T23:11:18.677Z,11.00
2022-11-29T23:13:45.476Z,11.32
2022-11-29T23:16:13.977Z,11.82
2022-11-29T23:18:42.249Z,11.70
2022-11-29T23:21:10.522Z,12.05
2022-11-29T23:23:37.156Z,11.90
2022-11-29T23:26:06.439Z,11.12
2022-11-29T23:28:33.717Z,11.90
2022-11-29T23:31:00.310Z,11.50
2022-11-29T23:33:27.276Z,11.38
2022-11-29T23:36:04.826Z,11.30
2022-11-29T23:38:31.451Z,10.82
2022-11-29T23:40:58.041Z,12.25
2022-11-29T23:43:24.648Z,11.93
2022-11-29T23:45:51.252Z,11.05
2022-11-29T23:48:17.846Z,10.90
2022-11-29T23:50:44.450Z,10.80
2022-11-29T23:53:14.611Z,11.02
2022-11-29T23:55:42.117Z,12.63
2022-11-29T23:58:09.122Z,12.52
